Observations for GUERNSEY AIRPORT, United Kingdom (EGJB)

EGJB 202120Z 23015KT 9999 FEW012 BKN024 12/11 Q1017 
EGJB 202050Z 23016KT 9999 FEW012 BKN024 12/11 Q1018 
EGJB 202020Z 23016KT 9999 FEW014 BKN022 13/11 Q1018 
EGJB 201950Z 23016KT 9999 FEW014 BKN022 13/10 Q1018 
EGJB 201920Z 24017KT 9999 FEW014 BKN022 13/10 Q1018 
EGJB 201850Z 24017KT 9999 FEW014 BKN022 13/10 Q1018 
EGJB 201820Z 24016KT 9999 FEW014 BKN022 13/10 Q1018 
EGJB 201750Z 24016KT 9999 FEW014 BKN022 13/10 Q1018 
EGJB 201720Z 24016KT 9999 FEW013 BKN020 13/10 Q1018 
EGJB 201650Z 25017KT 9999 FEW013 SCT016 13/10 Q1018 
EGJB 201620Z 25017KT 9999 FEW014 SCT016 13/10 Q1018 
EGJB 201550Z 24020KT 9999 FEW016 SCT020 13/10 Q1018 
EGJB 201520Z 24020KT 9999 FEW012 SCT020 13/10 Q1018 
EGJB 201450Z 24021KT 9999 FEW012 SCT020 13/10 Q1018 
EGJB 201420Z 24019KT 9999 FEW010 13/10 Q1018
EGJB 201350Z 24020KT 9999 SCT011 13/11 Q1018
EGJB 201320Z 24020KT 9999 BKN011 13/11 Q1019
EGJB 201250Z 24019KT 9999 SCT011 13/10 Q1019
EGJB 201220Z 24019KT 9999 BKN012 13/11 Q1019
EGJB 201150Z 24018KT 9999 BKN012 13/10 Q1020
EGJB 201120Z 24017KT 9999 BKN014 12/10 Q1020
EGJB 201050Z 23017KT 9999 BKN014 13/10 Q1020
EGJB 201020Z 24017KT 9999 BKN013 SCT028 12/10 Q1020 
EGJB 200950Z 23015KT 9999 BKN014 12/10 Q1020
EGJB 200920Z 24018KT 9999 SCT014 BKN030 12/09 Q1021 
EGJB 200850Z 24017KT 9999 SCT015 BKN029 12/10 Q1021 
EGJB 200820Z 25019KT 9999 SCT018 BKN030 12/07 Q1021 
EGJB 200750Z 25017KT 9999 SCT018 BKN029 12/08 Q1020 
EGJB 200720Z 25017KT 9999 SCT018 BKN028 12/08 Q1020 
EGJB 200650Z 25016KT 9999 FEW016 BKN028 12/07 Q1021 
EGJB 200620Z 25017KT 9999 FEW016 BKN027 11/08 Q1021 
EGJB 200550Z 25015KT 9999 FEW016 BKN027 11/07 Q1021 
EGJB 200520Z 24016KT 9999 FEW016 BKN027 11/08 Q1021 
EGJB 200450Z 25015KT 9999 FEW016 BKN028 11/07 Q1021 
EGJB 200420Z 24015KT 9999 FEW015 BKN028 11/07 Q1021 
EGJB 200350Z 24013KT 9999 FEW015 BKN028 11/08 Q1021